createdAt,value
2022-07-29T00:01:46.328Z,98250.32
2022-07-29T00:04:14.965Z,98242.35
2022-07-29T00:06:43.388Z,98244.48
2022-07-29T00:09:11.488Z,98244.80
2022-07-29T00:11:39.627Z,98243.91
2022-07-29T00:14:07.827Z,98246.09
2022-07-29T00:16:36.427Z,98248.39
2022-07-29T00:19:05.323Z,98246.95
2022-07-29T00:21:35.143Z,98249.36
2022-07-29T00:24:03.386Z,98247.94
2022-07-29T00:26:32.865Z,98245.31
2022-07-29T00:29:31.938Z,98244.83
2022-07-29T00:31:49.611Z,98248.61
2022-07-29T00:34:36.013Z,98252.34
2022-07-29T00:37:04.154Z,98252.06
2022-07-29T00:39:32.553Z,98254.65
2022-07-29T00:42:03.944Z,98249.20
2022-07-29T00:44:36.425Z,98249.13
2022-07-29T00:47:05.020Z,98243.96
2022-07-29T00:49:34.359Z,98240.41
2022-07-29T00:52:03.085Z,98239.27
2022-07-29T00:54:31.458Z,98239.13
2022-07-29T00:57:00.015Z,98236.01
2022-07-29T00:59:34.819Z,98235.98
2022-07-29T01:02:04.285Z,98236.71
2022-07-29T01:04:33.450Z,98230.84
2022-07-29T01:07:02.716Z,98230.15
2022-07-29T01:09:42.159Z,98231.34
2022-07-29T01:12:15.922Z,98227.71
2022-07-29T01:14:45.331Z,98227.80
2022-07-29T01:17:18.478Z,98226.40
2022-07-29T01:20:01.557Z,98224.87
2022-07-29T01:22:54.479Z,98226.87
2022-07-29T01:25:46.391Z,98224.00
2022-07-29T01:28:50.486Z,98223.71
2022-07-29T01:31:26.613Z,98221.61
2022-07-29T01:34:02.198Z,98221.80
2022-07-29T01:36:34.589Z,98224.83
2022-07-29T01:39:09.278Z,98221.56
2022-07-29T01:41:44.967Z,98220.56
2022-07-29T01:44:19.470Z,98218.71
2022-07-29T01:46:56.504Z,98217.35
2022-07-29T01:49:28.747Z,98218.27
2022-07-29T01:52:01.247Z,98212.14
2022-07-29T01:54:36.130Z,98213.54
2022-07-29T01:57:07.650Z,98209.01
2022-07-29T01:59:38.038Z,98207.47
2022-07-29T02:02:09.011Z,98205.01
2022-07-29T02:04:38.859Z,98197.43
2022-07-29T02:07:10.863Z,98198.05
2022-07-29T02:09:40.151Z,98191.69
2022-07-29T02:12:10.573Z,98184.61
2022-07-29T02:14:43.138Z,98185.03
2022-07-29T02:17:12.961Z,98183.79
2022-07-29T02:19:42.800Z,98186.80
2022-07-29T02:22:12.687Z,98184.56
2022-07-29T02:24:42.607Z,98186.98
2022-07-29T02:27:12.633Z,98186.75
2022-07-29T02:29:41.379Z,98187.94
2022-07-29T02:32:11.801Z,98188.25
2022-07-29T02:34:42.205Z,98192.95
2022-07-29T02:37:10.873Z,98189.29
2022-07-29T02:39:42.870Z,98186.46
2022-07-29T02:42:14.016Z,98187.71
2022-07-29T02:44:42.732Z,98185.96
2022-07-29T02:47:24.394Z,98187.55
2022-07-29T02:50:00.652Z,98184.29
2022-07-29T02:52:40.509Z,98185.38
2022-07-29T02:55:15.822Z,98187.54
2022-07-29T02:57:53.876Z,98188.13
2022-07-29T03:00:27.696Z,98187.25
2022-07-29T03:02:59.137Z,98185.13
2022-07-29T03:05:26.748Z,98184.16
2022-07-29T03:07:58.237Z,98182.14
2022-07-29T03:10:27.080Z,98177.04
2022-07-29T03:12:56.083Z,98174.38
2022-07-29T03:15:24.921Z,98176.17
2022-07-29T03:17:55.846Z,98179.14
2022-07-29T03:20:24.478Z,98177.59
2022-07-29T03:22:52.761Z,98184.16
2022-07-29T03:25:21.666Z,98186.47
2022-07-29T03:27:50.109Z,98186.01
2022-07-29T03:30:21.564Z,98185.95
2022-07-29T03:32:52.118Z,98185.75
2022-07-29T03:35:20.801Z,98185.71
2022-07-29T03:37:49.421Z,98184.88
2022-07-29T03:40:22.693Z,98185.48
2022-07-29T03:42:54.555Z,98187.67
2022-07-29T03:45:23.744Z,98184.55
2022-07-29T03:48:00.348Z,98185.52
2022-07-29T03:50:30.888Z,98182.57
2022-07-29T03:52:59.492Z,98185.02
2022-07-29T03:55:29.591Z,98189.67
2022-07-29T03:57:58.799Z,98192.51
2022-07-29T04:00:27.820Z,98193.39
2022-07-29T04:02:56.456Z,98193.45
2022-07-29T04:05:24.739Z,98192.38
2022-07-29T04:07:52.896Z,98189.65
2022-07-29T04:10:30.528Z,98187.09
2022-07-29T04:13:00.591Z,98190.40
2022-07-29T04:15:31.879Z,98194.00
2022-07-29T04:18:00.519Z,98194.20
2022-07-29T04:20:28.922Z,98187.75
2022-07-29T04:22:57.069Z,98184.06
2022-07-29T04:25:25.192Z,98176.31
2022-07-29T04:28:02.613Z,98174.55
2022-07-29T04:30:31.849Z,98170.22
2022-07-29T04:33:01.121Z,98171.97
2022-07-29T04:35:29.412Z,98169.04
2022-07-29T04:37:57.618Z,98171.42
2022-07-29T04:40:25.668Z,98169.87
2022-07-29T04:42:54.020Z,98169.39
2022-07-29T04:45:22.920Z,98166.21
2022-07-29T04:47:51.203Z,98166.83
2022-07-29T04:50:19.312Z,98172.41
2022-07-29T04:52:47.463Z,98171.15
2022-07-29T04:55:15.578Z,98169.16
2022-07-29T04:57:43.630Z,98168.81
2022-07-29T05:00:13.388Z,98164.64
2022-07-29T05:02:41.631Z,98166.79
2022-07-29T05:05:10.077Z,98165.30
2022-07-29T05:07:38.310Z,98163.36
2022-07-29T05:10:08.130Z,98168.60
2022-07-29T05:12:36.277Z,98164.27
2022-07-29T05:15:06.132Z,98166.78
2022-07-29T05:17:34.217Z,98161.48
2022-07-29T05:20:02.643Z,98154.23
2022-07-29T05:22:30.751Z,98161.34
2022-07-29T05:24:58.912Z,98157.40
2022-07-29T05:27:27.224Z,98160.95
2022-07-29T05:29:55.304Z,98154.30
2022-07-29T05:32:23.441Z,98159.11
2022-07-29T05:34:51.971Z,98157.99
2022-07-29T05:37:20.837Z,98166.05
2022-07-29T05:39:56.405Z,98170.52
2022-07-29T05:42:25.939Z,98175.18
2022-07-29T05:44:54.273Z,98175.74
2022-07-29T05:47:22.618Z,98174.46
2022-07-29T05:49:51.206Z,98177.73
2022-07-29T05:52:19.555Z,98179.71
2022-07-29T05:54:47.987Z,98175.77
2022-07-29T05:57:20.307Z,98179.80
2022-07-29T05:59:49.233Z,98175.45
2022-07-29T06:02:18.063Z,98176.20
2022-07-29T06:04:46.134Z,98174.04
2022-07-29T06:07:14.228Z,98169.86
2022-07-29T06:09:42.514Z,98169.70
2022-07-29T06:12:10.708Z,98163.89
2022-07-29T06:14:38.831Z,98165.81
2022-07-29T06:17:07.212Z,98162.81
2022-07-29T06:19:36.527Z,98163.08
2022-07-29T06:22:04.959Z,98161.02
2022-07-29T06:24:33.099Z,98168.05
2022-07-29T06:27:01.148Z,98165.69
2022-07-29T06:29:29.262Z,98168.86
2022-07-29T06:31:57.449Z,98169.90
2022-07-29T06:34:25.931Z,98170.71
2022-07-29T06:36:54.743Z,98174.72
2022-07-29T06:39:23.222Z,98173.51
2022-07-29T06:41:51.816Z,98170.66
2022-07-29T06:44:20.197Z,98170.77
2022-07-29T06:46:50.215Z,98169.56
2022-07-29T06:49:18.487Z,98174.11
2022-07-29T06:51:46.850Z,98168.45
2022-07-29T06:54:15.449Z,98167.42
2022-07-29T06:56:44.058Z,98163.02
2022-07-29T06:59:13.101Z,98161.48
2022-07-29T07:01:42.749Z,98162.67
2022-07-29T07:04:12.341Z,98159.65
2022-07-29T07:06:41.164Z,98160.73
2022-07-29T07:09:09.537Z,98158.77
2022-07-29T07:11:37.657Z,98161.02
2022-07-29T07:14:05.899Z,98164.94
2022-07-29T07:16:34.183Z,98160.84
2022-07-29T07:19:02.517Z,98166.68
2022-07-29T07:21:31.151Z,98164.25
2022-07-29T07:24:00.244Z,98165.27
2022-07-29T07:26:28.977Z,98162.32
2022-07-29T07:28:58.408Z,98165.69
2022-07-29T07:31:26.577Z,98167.94
2022-07-29T07:33:54.773Z,98167.52
2022-07-29T07:36:23.946Z,98170.64
2022-07-29T07:38:52.115Z,98167.72
2022-07-29T07:41:21.629Z,98163.63
2022-07-29T07:43:49.795Z,98168.51
2022-07-29T07:46:17.905Z,98170.39
2022-07-29T07:48:46.156Z,98174.53
2022-07-29T07:51:14.496Z,98178.31
2022-07-29T07:53:42.576Z,98183.33
2022-07-29T07:56:12.254Z,98187.20
2022-07-29T07:58:41.241Z,98184.30
2022-07-29T08:01:09.837Z,98180.08
2022-07-29T08:03:38.223Z,98180.45
2022-07-29T08:06:06.630Z,98178.48
2022-07-29T08:08:34.807Z,98179.27
2022-07-29T08:11:08.544Z,98170.62
2022-07-29T08:13:38.539Z,98166.83
2022-07-29T08:16:13.600Z,98167.74
2022-07-29T08:18:43.617Z,98164.65
2022-07-29T08:21:14.774Z,98156.53
2022-07-29T08:23:53.135Z,98158.58
2022-07-29T08:26:26.067Z,98157.02
2022-07-29T08:28:54.230Z,98152.61
2022-07-29T08:31:22.466Z,98155.95
2022-07-29T08:33:50.873Z,98159.89
2022-07-29T08:36:21.182Z,98161.20
2022-07-29T08:38:50.018Z,98169.63
2022-07-29T08:41:19.314Z,98164.70
2022-07-29T08:43:47.663Z,98162.50
2022-07-29T08:46:17.518Z,98156.30
2022-07-29T08:48:46.212Z,98148.55
2022-07-29T08:51:16.579Z,98144.21
2022-07-29T08:53:47.699Z,98140.33
2022-07-29T08:56:17.587Z,98141.80
2022-07-29T08:58:51.885Z,98138.42
2022-07-29T09:01:35.911Z,98141.78
2022-07-29T09:04:10.884Z,98143.41
2022-07-29T09:06:42.951Z,98145.48
2022-07-29T09:09:12.238Z,98145.54
2022-07-29T09:11:41.529Z,98151.35
2022-07-29T09:14:11.600Z,98148.16
2022-07-29T09:16:53.219Z,98152.29
2022-07-29T09:19:24.392Z,98148.64
2022-07-29T09:21:58.961Z,98150.73
2022-07-29T09:24:37.612Z,98148.78
2022-07-29T09:27:10.497Z,98145.09
2022-07-29T09:29:38.987Z,98148.29
2022-07-29T09:32:11.130Z,98149.49
2022-07-29T09:34:39.344Z,98151.15
2022-07-29T09:37:07.512Z,98155.85
2022-07-29T09:39:38.178Z,98153.22
2022-07-29T09:42:07.610Z,98152.32
2022-07-29T09:44:50.285Z,98149.80
2022-07-29T09:47:21.975Z,98141.40
2022-07-29T09:49:58.109Z,98144.08
2022-07-29T09:52:28.702Z,98145.17
2022-07-29T09:55:07.087Z,98141.48
2022-07-29T09:57:35.423Z,98137.23
2022-07-29T10:00:08.735Z,98141.79
2022-07-29T10:02:44.341Z,98132.34
2022-07-29T10:05:21.101Z,98135.34
2022-07-29T10:07:53.900Z,98128.64
2022-07-29T10:10:24.161Z,98129.23
2022-07-29T10:12:54.915Z,98119.17
2022-07-29T10:15:24.659Z,98115.66
2022-07-29T10:17:54.276Z,98112.36
2022-07-29T10:20:22.953Z,98109.31
2022-07-29T10:22:53.806Z,98108.45
2022-07-29T10:25:22.823Z,98100.65
2022-07-29T10:27:51.807Z,98105.89
2022-07-29T10:30:21.452Z,98099.52
2022-07-29T10:33:14.684Z,98099.29
2022-07-29T10:35:59.541Z,98103.71
2022-07-29T10:38:45.915Z,98103.88
2022-07-29T10:41:32.009Z,98097.46
2022-07-29T10:44:02.913Z,98099.36
2022-07-29T10:46:36.569Z,98095.39
2022-07-29T10:49:09.594Z,98092.48
2022-07-29T10:51:55.265Z,98094.01
2022-07-29T10:54:43.978Z,98095.99
2022-07-29T10:57:54.243Z,98087.84
2022-07-29T11:00:31.749Z,98088.77
2022-07-29T11:03:01.336Z,98086.52
2022-07-29T11:05:53.192Z,98094.02
2022-07-29T11:08:26.343Z,98092.07
2022-07-29T11:11:36.957Z,98091.98
2022-07-29T11:14:05.529Z,98086.88
2022-07-29T11:17:06.099Z,98086.63
2022-07-29T11:19:40.393Z,98086.40
2022-07-29T11:22:31.735Z,98089.87
2022-07-29T11:25:14.738Z,98088.91
2022-07-29T11:27:45.773Z,98084.14
2022-07-29T11:30:14.564Z,98082.31
2022-07-29T11:32:44.671Z,98084.07
2022-07-29T11:35:18.868Z,98079.52
2022-07-29T11:37:52.678Z,98076.22
2022-07-29T11:40:24.170Z,98065.05
2022-07-29T11:42:52.692Z,98068.25
2022-07-29T11:45:41.354Z,98066.45
2022-07-29T11:48:28.774Z,98063.05
2022-07-29T11:51:00.698Z,98063.55
2022-07-29T11:53:33.060Z,98063.42
2022-07-29T11:56:02.671Z,98060.39
2022-07-29T11:58:31.901Z,98058.34
2022-07-29T12:01:04.669Z,98056.35
2022-07-29T12:03:36.408Z,98053.23
2022-07-29T12:06:13.840Z,98055.84
2022-07-29T12:08:44.607Z,98060.67
2022-07-29T12:11:21.789Z,98060.34
2022-07-29T12:13:50.947Z,98059.16
2022-07-29T12:16:25.484Z,98062.05
2022-07-29T12:19:00.690Z,98058.70
2022-07-29T12:21:56.966Z,98058.14
2022-07-29T12:24:43.045Z,98057.48
2022-07-29T12:27:17.504Z,98057.49
2022-07-29T12:29:48.855Z,98060.41
2022-07-29T12:32:19.817Z,98057.85
2022-07-29T12:34:48.526Z,98057.86
2022-07-29T12:37:17.102Z,98061.48
2022-07-29T12:39:45.701Z,98061.08
2022-07-29T12:42:18.285Z,98052.05
2022-07-29T12:44:48.432Z,98050.14
2022-07-29T12:47:18.363Z,98048.05
2022-07-29T12:49:47.379Z,98051.26
2022-07-29T12:52:30.159Z,98051.35
2022-07-29T12:54:59.189Z,98054.56
2022-07-29T12:57:27.525Z,98055.45
2022-07-29T13:00:08.701Z,98054.42
2022-07-29T13:02:37.538Z,98051.94
2022-07-29T13:05:08.495Z,98052.39
2022-07-29T13:07:54.311Z,98050.45
2022-07-29T13:10:42.275Z,98051.30
2022-07-29T13:13:12.309Z,98050.34
2022-07-29T13:15:42.422Z,98052.23
2022-07-29T13:18:28.564Z,98053.23
2022-07-29T13:20:57.671Z,98052.50
2022-07-29T13:23:25.757Z,98048.23
2022-07-29T13:25:54.011Z,98050.65
2022-07-29T13:28:23.651Z,98045.89
2022-07-29T13:30:51.947Z,98043.67
2022-07-29T13:33:20.116Z,98040.34
2022-07-29T13:35:48.205Z,98040.81
2022-07-29T13:38:16.560Z,98041.55
2022-07-29T13:40:44.876Z,98037.08
2022-07-29T13:43:13.260Z,98036.42
2022-07-29T13:45:41.509Z,98034.44
2022-07-29T13:48:09.807Z,98030.89
2022-07-29T13:50:38.060Z,98026.80
2022-07-29T13:53:06.198Z,98025.32
2022-07-29T13:55:34.879Z,98022.23
2022-07-29T13:58:03.069Z,98020.09
2022-07-29T14:00:35.109Z,98012.71
2022-07-29T14:03:03.586Z,98006.05
2022-07-29T14:05:31.830Z,97999.38
2022-07-29T14:08:00.462Z,97991.59
2022-07-29T14:10:28.621Z,97981.44
2022-07-29T14:12:56.691Z,97976.59
2022-07-29T14:15:25.221Z,97974.17
2022-07-29T14:17:53.265Z,97967.09
2022-07-29T14:20:21.367Z,97969.52
2022-07-29T14:22:49.557Z,97965.70
2022-07-29T14:25:18.451Z,97967.18
2022-07-29T14:27:49.364Z,97955.05
2022-07-29T14:30:17.789Z,97948.27
2022-07-29T14:32:45.914Z,97942.10
2022-07-29T14:35:14.318Z,97939.45
2022-07-29T14:37:42.873Z,97933.70
2022-07-29T14:40:12.296Z,97933.55
2022-07-29T14:42:40.852Z,97932.19
2022-07-29T14:45:10.171Z,97934.87
2022-07-29T14:47:38.726Z,97939.16
2022-07-29T14:50:08.799Z,97936.61
2022-07-29T14:52:37.784Z,97936.56
2022-07-29T14:55:16.432Z,97940.45
2022-07-29T14:57:48.743Z,97935.61
2022-07-29T15:00:17.758Z,97932.89
2022-07-29T15:03:01.251Z,97940.98
2022-07-29T15:05:30.785Z,97939.96
2022-07-29T15:07:59.225Z,97938.52
2022-07-29T15:10:27.674Z,97932.48
2022-07-29T15:12:55.861Z,97934.14
2022-07-29T15:15:24.464Z,97931.33
2022-07-29T15:17:52.574Z,97938.94
2022-07-29T15:20:21.658Z,97938.69
2022-07-29T15:22:49.953Z,97942.67
2022-07-29T15:25:18.149Z,97944.59
2022-07-29T15:27:49.003Z,97940.77
2022-07-29T15:30:32.823Z,97942.70
2022-07-29T15:33:01.097Z,97945.38
2022-07-29T15:35:29.332Z,97949.79
2022-07-29T15:37:57.489Z,97953.98
2022-07-29T15:40:25.618Z,97952.04
2022-07-29T15:42:54.010Z,97950.67
2022-07-29T15:45:22.529Z,97947.39
2022-07-29T15:47:50.580Z,97947.13
2022-07-29T15:50:19.445Z,97948.81
2022-07-29T15:52:47.501Z,97948.29
2022-07-29T15:55:15.747Z,97952.33
2022-07-29T15:57:43.831Z,97948.94
2022-07-29T16:00:13.728Z,97946.58
2022-07-29T16:02:41.798Z,97944.54
2022-07-29T16:05:10.318Z,97943.12
2022-07-29T16:07:38.387Z,97942.11
2022-07-29T16:10:07.453Z,97942.23
2022-07-29T16:12:35.719Z,97942.07
2022-07-29T16:15:09.410Z,97937.02
2022-07-29T16:17:38.840Z,97933.83
2022-07-29T16:20:09.238Z,97933.23
2022-07-29T16:22:38.682Z,97932.84
2022-07-29T16:25:08.950Z,97937.09
2022-07-29T16:27:38.267Z,97938.71
2022-07-29T16:30:09.217Z,97935.73
2022-07-29T16:32:36.565Z,97935.57
2022-07-29T16:35:06.078Z,97936.22
2022-07-29T16:37:36.425Z,97934.31
2022-07-29T16:40:06.732Z,97940.11
2022-07-29T16:42:49.171Z,97944.79
2022-07-29T16:45:19.865Z,97948.19
2022-07-29T16:47:50.226Z,97948.56
2022-07-29T16:50:18.409Z,97951.73
2022-07-29T16:52:46.587Z,97955.35
2022-07-29T16:55:14.917Z,97953.07
2022-07-29T16:57:43.192Z,97953.42
2022-07-29T17:00:13.757Z,97956.05
2022-07-29T17:02:41.827Z,97955.55
2022-07-29T17:05:11.607Z,97949.71
2022-07-29T17:07:39.795Z,97951.92
2022-07-29T17:10:10.311Z,97949.70
2022-07-29T17:12:40.097Z,97949.86
2022-07-29T17:15:12.117Z,97947.05
2022-07-29T17:17:55.390Z,97944.35
2022-07-29T17:20:26.254Z,97945.42
2022-07-29T17:22:54.661Z,97941.70
2022-07-29T17:25:22.975Z,97940.11
2022-07-29T17:27:51.012Z,97942.50
2022-07-29T17:30:19.271Z,97940.84
2022-07-29T17:32:47.481Z,97953.09
2022-07-29T17:35:33.570Z,97979.71
2022-07-29T17:38:01.693Z,98004.08
2022-07-29T17:40:29.797Z,97999.70
2022-07-29T17:42:57.835Z,97989.10
2022-07-29T17:45:26.011Z,97993.85
2022-07-29T17:47:54.035Z,98012.21
2022-07-29T17:50:22.127Z,98035.45
2022-07-29T17:52:50.244Z,98060.83
2022-07-29T17:55:18.707Z,98058.23
2022-07-29T17:57:47.036Z,98060.97
2022-07-29T18:00:17.799Z,98065.95
2022-07-29T18:02:46.058Z,98058.33
2022-07-29T18:05:14.576Z,98054.02
2022-07-29T18:07:42.677Z,98055.37
2022-07-29T18:10:11.189Z,98055.05
2022-07-29T18:12:39.258Z,98049.36
2022-07-29T18:15:08.575Z,98049.52
2022-07-29T18:17:56.635Z,98043.08
2022-07-29T18:20:25.157Z,98036.58
2022-07-29T18:22:53.975Z,98034.30
2022-07-29T18:25:23.003Z,98035.52
2022-07-29T18:27:51.536Z,98031.02
2022-07-29T18:30:19.948Z,98032.58
2022-07-29T18:33:18.099Z,98028.77
2022-07-29T18:35:36.998Z,98029.50
2022-07-29T18:38:05.397Z,98032.45
2022-07-29T18:40:33.775Z,98022.48
2022-07-29T18:43:01.973Z,98012.17
2022-07-29T18:45:30.064Z,98008.86
2022-07-29T18:48:01.410Z,98002.80
2022-07-29T18:50:30.016Z,98003.64
2022-07-29T18:53:00.488Z,98004.61
2022-07-29T18:55:28.655Z,98007.30
2022-07-29T18:57:57.520Z,98002.72
2022-07-29T19:00:26.411Z,97996.23
2022-07-29T19:02:54.839Z,97988.12
2022-07-29T19:05:23.398Z,97987.54
2022-07-29T19:07:51.619Z,97987.09
2022-07-29T19:10:19.891Z,97985.66
2022-07-29T19:12:48.090Z,97985.30
2022-07-29T19:15:20.486Z,97994.36
2022-07-29T19:17:48.908Z,97994.16
2022-07-29T19:20:17.232Z,97990.14
2022-07-29T19:22:45.355Z,97983.56
2022-07-29T19:25:13.601Z,97979.48
2022-07-29T19:27:43.242Z,97976.91
2022-07-29T19:30:12.530Z,97978.02
2022-07-29T19:32:40.722Z,97975.75
2022-07-29T19:35:24.474Z,97974.49
2022-07-29T19:37:53.996Z,97977.22
2022-07-29T19:40:22.764Z,97984.69
2022-07-29T19:42:52.230Z,97988.04
2022-07-29T19:45:21.061Z,97990.05
2022-07-29T19:47:49.637Z,97992.14
2022-07-29T19:50:17.853Z,97992.37
2022-07-29T19:52:46.439Z,97996.64
2022-07-29T19:55:14.932Z,97997.13
2022-07-29T19:57:43.974Z,97998.13
2022-07-29T20:00:13.535Z,97995.91
2022-07-29T20:02:42.687Z,97996.92
2022-07-29T20:05:11.713Z,97994.39
2022-07-29T20:07:39.965Z,97993.15
2022-07-29T20:10:10.431Z,97990.31
2022-07-29T20:12:38.809Z,97989.34
2022-07-29T20:15:09.821Z,97987.98
2022-07-29T20:17:44.647Z,97992.48
2022-07-29T20:20:13.130Z,97992.77
2022-07-29T20:22:41.311Z,97989.44
2022-07-29T20:25:11.217Z,97990.26
2022-07-29T20:27:39.966Z,97991.57
2022-07-29T20:30:12.662Z,97989.95
2022-07-29T20:32:41.484Z,97988.64
2022-07-29T20:35:11.344Z,97985.62
2022-07-29T20:37:52.188Z,97986.98
2022-07-29T20:40:24.944Z,97983.55
2022-07-29T20:42:53.161Z,97982.20
2022-07-29T20:45:22.694Z,97981.69
2022-07-29T20:47:51.126Z,97981.16
2022-07-29T20:50:19.874Z,97980.54
2022-07-29T20:52:49.815Z,97983.55
2022-07-29T20:55:18.274Z,97983.44
2022-07-29T20:57:46.328Z,97981.33
2022-07-29T21:00:15.460Z,97981.07
2022-07-29T21:02:43.773Z,97978.75
2022-07-29T21:05:11.984Z,97981.27
2022-07-29T21:07:40.177Z,97974.75
2022-07-29T21:10:09.374Z,97972.39
2022-07-29T21:12:37.453Z,97972.75
2022-07-29T21:15:07.487Z,97972.83
2022-07-29T21:17:38.183Z,97972.59
2022-07-29T21:20:08.324Z,97973.51
2022-07-29T21:22:36.396Z,97976.02
2022-07-29T21:25:06.085Z,97977.09
2022-07-29T21:27:52.624Z,97972.65
2022-07-29T21:30:21.401Z,97966.66
2022-07-29T21:32:49.638Z,97967.00
2022-07-29T21:36:01.733Z,97958.27
2022-07-29T21:38:05.882Z,97953.93
2022-07-29T21:40:34.143Z,97951.80
2022-07-29T21:43:02.204Z,97952.08
2022-07-29T21:45:30.980Z,97950.60
2022-07-29T21:47:59.124Z,97949.27
2022-07-29T21:50:27.285Z,97946.29
2022-07-29T21:52:55.527Z,97938.38
2022-07-29T21:55:25.714Z,97936.44
2022-07-29T21:57:56.348Z,97935.14
2022-07-29T22:00:25.195Z,97935.34
2022-07-29T22:02:53.330Z,97932.66
2022-07-29T22:05:21.481Z,97934.42
2022-07-29T22:07:56.375Z,97936.60
2022-07-29T22:10:26.767Z,97939.05
2022-07-29T22:12:56.879Z,97943.59
2022-07-29T22:15:25.705Z,97948.40
2022-07-29T22:17:54.106Z,97949.61
2022-07-29T22:20:22.613Z,97950.35
2022-07-29T22:22:50.721Z,97948.08
2022-07-29T22:25:19.131Z,97945.42
2022-07-29T22:27:47.380Z,97939.91
2022-07-29T22:30:15.556Z,97935.41
2022-07-29T22:32:43.653Z,97930.05
2022-07-29T22:35:11.875Z,97930.30
2022-07-29T22:37:39.930Z,97929.21
2022-07-29T22:40:09.362Z,97923.61
2022-07-29T22:42:40.640Z,97921.19
2022-07-29T22:45:10.846Z,97919.81
2022-07-29T22:47:48.019Z,97922.33
2022-07-29T22:50:17.086Z,97922.53
2022-07-29T22:52:45.526Z,97922.58
2022-07-29T22:55:14.119Z,97920.25
2022-07-29T22:57:42.360Z,97919.83
2022-07-29T23:00:12.871Z,97913.86
2022-07-29T23:02:41.093Z,97910.11
2022-07-29T23:05:10.548Z,97904.28
2022-07-29T23:07:38.842Z,97905.14
2022-07-29T23:10:08.919Z,97902.67
2022-07-29T23:12:37.240Z,97901.40
2022-07-29T23:15:06.272Z,97893.45
2022-07-29T23:17:36.127Z,97892.16
2022-07-29T23:20:08.243Z,97888.45
2022-07-29T23:22:38.102Z,97880.75
2022-07-29T23:25:07.936Z,97881.98
2022-07-29T23:27:36.542Z,97879.23
2022-07-29T23:30:06.532Z,97875.23
2022-07-29T23:32:34.793Z,97874.56
2022-07-29T23:35:04.634Z,97870.23
2022-07-29T23:37:32.736Z,97867.99
2022-07-29T23:40:00.902Z,97865.99
2022-07-29T23:42:29.119Z,97862.36
2022-07-29T23:44:57.149Z,97860.13
2022-07-29T23:47:25.736Z,97856.95
2022-07-29T23:49:53.811Z,97851.35
2022-07-29T23:52:22.024Z,97841.02
2022-07-29T23:54:50.097Z,97840.64
2022-07-29T23:57:18.249Z,97833.40
2022-07-29T23:59:46.276Z,97834.44
